sensor_id;sensor_type;location;lat;lon;timestamp;P1;durP1;ratioP1;P2;durP2;ratioP2
16813;SDS011;8524;57.650;11.926;2022-10-23T00:01:17;10.87;;;8.90;;
16813;SDS011;8524;57.650;11.926;2022-10-23T00:03:46;12.77;;;11.37;;
16813;SDS011;8524;57.650;11.926;2022-10-23T00:06:16;10.93;;;9.83;;
16813;SDS011;8524;57.650;11.926;2022-10-23T00:08:46;10.40;;;9.40;;
16813;SDS011;8524;57.650;11.926;2022-10-23T00:11:14;9.83;;;8.83;;
16813;SDS011;8524;57.650;11.926;2022-10-23T00:13:43;9.53;;;8.67;;
16813;SDS011;8524;57.650;11.926;2022-10-23T00:16:10;9.87;;;8.97;;
16813;SDS011;8524;57.650;11.926;2022-10-23T00:18:37;10.13;;;9.17;;
16813;SDS011;8524;57.650;11.926;2022-10-23T00:21:05;12.00;;;10.10;;
16813;SDS011;8524;57.650;11.926;2022-10-23T00:23:33;9.93;;;8.93;;
16813;SDS011;8524;57.650;11.926;2022-10-23T00:26:02;9.53;;;8.57;;
16813;SDS011;8524;57.650;11.926;2022-10-23T00:28:29;9.00;;;8.17;;
16813;SDS011;8524;57.650;11.926;2022-10-23T00:30:56;8.30;;;7.17;;
16813;SDS011;8524;57.650;11.926;2022-10-23T00:33:23;7.23;;;6.63;;
16813;SDS011;8524;57.650;11.926;2022-10-23T00:35:49;8.80;;;7.47;;
16813;SDS011;8524;57.650;11.926;2022-10-23T00:38:16;8.83;;;7.93;;
16813;SDS011;8524;57.650;11.926;2022-10-23T00:40:43;8.63;;;7.83;;
16813;SDS011;8524;57.650;11.926;2022-10-23T00:43:16;7.97;;;7.10;;
16813;SDS011;8524;57.650;11.926;2022-10-23T00:45:44;8.00;;;7.20;;
16813;SDS011;8524;57.650;11.926;2022-10-23T00:48:11;7.50;;;6.73;;
16813;SDS011;8524;57.650;11.926;2022-10-23T00:50:39;8.87;;;8.03;;
16813;SDS011;8524;57.650;11.926;2022-10-23T00:53:07;9.40;;;8.50;;
16813;SDS011;8524;57.650;11.926;2022-10-23T00:55:37;8.00;;;7.13;;
16813;SDS011;8524;57.650;11.926;2022-10-23T00:58:05;8.93;;;8.03;;
16813;SDS011;8524;57.650;11.926;2022-10-23T01:00:41;10.77;;;8.27;;
16813;SDS011;8524;57.650;11.926;2022-10-23T01:03:10;7.43;;;6.73;;
16813;SDS011;8524;57.650;11.926;2022-10-23T01:05:42;9.27;;;7.90;;
16813;SDS011;8524;57.650;11.926;2022-10-23T01:08:15;7.60;;;6.90;;
16813;SDS011;8524;57.650;11.926;2022-10-23T01:10:49;8.07;;;7.27;;
16813;SDS011;8524;57.650;11.926;2022-10-23T01:13:21;8.37;;;7.50;;
16813;SDS011;8524;57.650;11.926;2022-10-23T01:16:04;11.30;;;8.93;;
16813;SDS011;8524;57.650;11.926;2022-10-23T01:18:36;13.67;;;11.23;;
16813;SDS011;8524;57.650;11.926;2022-10-23T01:21:07;14.57;;;11.80;;
16813;SDS011;8524;57.650;11.926;2022-10-23T01:26:44;14.17;;;11.23;;
16813;SDS011;8524;57.650;11.926;2022-10-23T01:29:19;16.07;;;11.73;;
16813;SDS011;8524;57.650;11.926;2022-10-23T01:31:55;14.33;;;10.93;;
16813;SDS011;8524;57.650;11.926;2022-10-23T01:34:27;14.00;;;11.20;;
16813;SDS011;8524;57.650;11.926;2022-10-23T01:36:57;10.40;;;9.30;;
16813;SDS011;8524;57.650;11.926;2022-10-23T01:39:28;12.33;;;10.47;;
16813;SDS011;8524;57.650;11.926;2022-10-23T01:42:01;13.70;;;11.57;;
16813;SDS011;8524;57.650;11.926;2022-10-23T01:44:33;11.73;;;9.73;;
16813;SDS011;8524;57.650;11.926;2022-10-23T01:47:05;12.67;;;9.30;;
16813;SDS011;8524;57.650;11.926;2022-10-23T01:49:35;13.97;;;10.57;;
16813;SDS011;8524;57.650;11.926;2022-10-23T01:52:05;12.47;;;10.57;;
16813;SDS011;8524;57.650;11.926;2022-10-23T01:54:34;10.70;;;9.23;;
16813;SDS011;8524;57.650;11.926;2022-10-23T01:57:04;12.47;;;10.83;;
16813;SDS011;8524;57.650;11.926;2022-10-23T01:59:37;15.73;;;11.87;;
16813;SDS011;8524;57.650;11.926;2022-10-23T02:02:08;14.53;;;11.90;;
16813;SDS011;8524;57.650;11.926;2022-10-23T02:04:37;14.67;;;11.23;;
16813;SDS011;8524;57.650;11.926;2022-10-23T02:07:06;13.07;;;9.77;;
16813;SDS011;8524;57.650;11.926;2022-10-23T02:09:34;11.63;;;9.97;;
16813;SDS011;8524;57.650;11.926;2022-10-23T02:12:02;12.27;;;10.07;;
16813;SDS011;8524;57.650;11.926;2022-10-23T02:14:38;11.77;;;9.13;;
16813;SDS011;8524;57.650;11.926;2022-10-23T02:17:12;10.40;;;8.63;;
16813;SDS011;8524;57.650;11.926;2022-10-23T02:19:44;9.80;;;8.63;;
16813;SDS011;8524;57.650;11.926;2022-10-23T02:22:17;12.23;;;9.23;;
16813;SDS011;8524;57.650;11.926;2022-10-23T02:24:49;10.53;;;8.73;;
16813;SDS011;8524;57.650;11.926;2022-10-23T02:27:20;9.10;;;7.83;;
16813;SDS011;8524;57.650;11.926;2022-10-23T02:29:54;9.53;;;7.73;;
16813;SDS011;8524;57.650;11.926;2022-10-23T02:32:26;7.37;;;6.60;;
16813;SDS011;8524;57.650;11.926;2022-10-23T02:34:54;7.63;;;6.83;;
16813;SDS011;8524;57.650;11.926;2022-10-23T02:37:21;8.93;;;7.33;;
16813;SDS011;8524;57.650;11.926;2022-10-23T02:39:49;10.07;;;8.03;;
16813;SDS011;8524;57.650;11.926;2022-10-23T02:42:17;6.93;;;6.23;;
16813;SDS011;8524;57.650;11.926;2022-10-23T02:44:51;6.03;;;5.43;;
16813;SDS011;8524;57.650;11.926;2022-10-23T02:47:31;6.10;;;5.50;;
16813;SDS011;8524;57.650;11.926;2022-10-23T02:50:15;6.13;;;5.23;;
16813;SDS011;8524;57.650;11.926;2022-10-23T02:52:50;6.70;;;5.33;;
16813;SDS011;8524;57.650;11.926;2022-10-23T02:55:26;8.00;;;5.93;;
16813;SDS011;8524;57.650;11.926;2022-10-23T02:58:00;6.37;;;4.93;;
16813;SDS011;8524;57.650;11.926;2022-10-23T03:00:34;6.30;;;5.50;;
16813;SDS011;8524;57.650;11.926;2022-10-23T03:03:05;5.67;;;5.17;;
16813;SDS011;8524;57.650;11.926;2022-10-23T03:05:37;4.93;;;4.23;;
16813;SDS011;8524;57.650;11.926;2022-10-23T03:08:09;4.90;;;4.33;;
16813;SDS011;8524;57.650;11.926;2022-10-23T03:10:39;4.77;;;4.33;;
16813;SDS011;8524;57.650;11.926;2022-10-23T03:13:06;4.20;;;3.80;;
16813;SDS011;8524;57.650;11.926;2022-10-23T03:15:36;4.53;;;4.07;;
16813;SDS011;8524;57.650;11.926;2022-10-23T03:18:03;4.27;;;3.87;;
16813;SDS011;8524;57.650;11.926;2022-10-23T03:20:30;4.23;;;3.83;;
16813;SDS011;8524;57.650;11.926;2022-10-23T03:22:56;4.80;;;3.97;;
16813;SDS011;8524;57.650;11.926;2022-10-23T03:25:23;4.43;;;3.20;;
16813;SDS011;8524;57.650;11.926;2022-10-23T03:27:50;3.50;;;3.20;;
16813;SDS011;8524;57.650;11.926;2022-10-23T03:30:17;3.30;;;3.00;;
16813;SDS011;8524;57.650;11.926;2022-10-23T03:32:46;3.13;;;2.83;;
16813;SDS011;8524;57.650;11.926;2022-10-23T03:35:13;3.43;;;3.03;;
16813;SDS011;8524;57.650;11.926;2022-10-23T03:37:40;2.83;;;2.57;;
16813;SDS011;8524;57.650;11.926;2022-10-23T03:40:07;3.17;;;2.73;;
16813;SDS011;8524;57.650;11.926;2022-10-23T03:42:35;2.87;;;2.60;;
16813;SDS011;8524;57.650;11.926;2022-10-23T03:45:02;2.50;;;2.30;;
16813;SDS011;8524;57.650;11.926;2022-10-23T03:47:30;2.87;;;2.43;;
16813;SDS011;8524;57.650;11.926;2022-10-23T03:50:00;2.40;;;2.20;;
16813;SDS011;8524;57.650;11.926;2022-10-23T03:52:27;2.40;;;2.17;;
16813;SDS011;8524;57.650;11.926;2022-10-23T03:54:54;1.97;;;1.60;;
16813;SDS011;8524;57.650;11.926;2022-10-23T03:57:21;2.80;;;2.00;;
16813;SDS011;8524;57.650;11.926;2022-10-23T03:59:48;1.80;;;1.67;;
16813;SDS011;8524;57.650;11.926;2022-10-23T04:02:15;1.47;;;1.37;;
16813;SDS011;8524;57.650;11.926;2022-10-23T04:04:42;2.03;;;1.80;;
16813;SDS011;8524;57.650;11.926;2022-10-23T04:07:10;1.80;;;1.70;;
16813;SDS011;8524;57.650;11.926;2022-10-23T04:09:37;1.80;;;1.70;;
16813;SDS011;8524;57.650;11.926;2022-10-23T04:12:04;2.77;;;1.87;;
16813;SDS011;8524;57.650;11.926;2022-10-23T04:14:32;2.17;;;1.80;;
16813;SDS011;8524;57.650;11.926;2022-10-23T04:16:59;1.83;;;1.47;;
16813;SDS011;8524;57.650;11.926;2022-10-23T04:19:26;1.40;;;1.30;;
16813;SDS011;8524;57.650;11.926;2022-10-23T04:21:52;1.63;;;1.53;;
16813;SDS011;8524;57.650;11.926;2022-10-23T04:24:22;1.77;;;1.67;;
16813;SDS011;8524;57.650;11.926;2022-10-23T04:26:50;1.50;;;1.40;;
16813;SDS011;8524;57.650;11.926;2022-10-23T04:29:18;1.70;;;1.60;;
16813;SDS011;8524;57.650;11.926;2022-10-23T04:31:46;2.40;;;1.90;;
16813;SDS011;8524;57.650;11.926;2022-10-23T04:34:13;1.83;;;1.70;;
16813;SDS011;8524;57.650;11.926;2022-10-23T04:36:40;1.90;;;1.80;;
16813;SDS011;8524;57.650;11.926;2022-10-23T04:39:07;3.80;;;3.33;;
16813;SDS011;8524;57.650;11.926;2022-10-23T04:41:35;3.93;;;3.10;;
16813;SDS011;8524;57.650;11.926;2022-10-23T04:44:02;7.03;;;4.60;;
16813;SDS011;8524;57.650;11.926;2022-10-23T04:46:29;5.33;;;4.50;;
16813;SDS011;8524;57.650;11.926;2022-10-23T04:48:56;8.30;;;5.93;;
16813;SDS011;8524;57.650;11.926;2022-10-23T04:51:23;16.30;;;8.77;;
16813;SDS011;8524;57.650;11.926;2022-10-23T04:53:50;10.67;;;7.10;;
16813;SDS011;8524;57.650;11.926;2022-10-23T04:56:17;9.70;;;7.00;;
16813;SDS011;8524;57.650;11.926;2022-10-23T04:58:45;10.37;;;6.87;;
16813;SDS011;8524;57.650;11.926;2022-10-23T05:01:12;12.47;;;7.23;;
16813;SDS011;8524;57.650;11.926;2022-10-23T05:03:39;13.80;;;8.40;;
16813;SDS011;8524;57.650;11.926;2022-10-23T05:06:06;18.07;;;9.73;;
16813;SDS011;8524;57.650;11.926;2022-10-23T05:08:33;17.00;;;8.57;;
16813;SDS011;8524;57.650;11.926;2022-10-23T05:11:01;20.93;;;8.53;;
16813;SDS011;8524;57.650;11.926;2022-10-23T05:13:28;25.20;;;11.47;;
16813;SDS011;8524;57.650;11.926;2022-10-23T05:15:57;26.87;;;10.30;;
16813;SDS011;8524;57.650;11.926;2022-10-23T05:18:25;18.70;;;9.10;;
16813;SDS011;8524;57.650;11.926;2022-10-23T05:20:58;19.63;;;8.73;;
16813;SDS011;8524;57.650;11.926;2022-10-23T05:23:27;15.07;;;8.37;;
16813;SDS011;8524;57.650;11.926;2022-10-23T05:25:58;22.23;;;8.87;;
16813;SDS011;8524;57.650;11.926;2022-10-23T05:28:27;17.87;;;8.77;;
16813;SDS011;8524;57.650;11.926;2022-10-23T05:30:55;21.93;;;8.13;;
16813;SDS011;8524;57.650;11.926;2022-10-23T05:33:24;20.60;;;10.33;;
16813;SDS011;8524;57.650;11.926;2022-10-23T05:35:51;17.93;;;7.93;;
16813;SDS011;8524;57.650;11.926;2022-10-23T05:38:18;20.07;;;9.60;;
16813;SDS011;8524;57.650;11.926;2022-10-23T05:40:45;15.23;;;8.03;;
16813;SDS011;8524;57.650;11.926;2022-10-23T05:43:12;17.20;;;7.93;;
16813;SDS011;8524;57.650;11.926;2022-10-23T05:45:39;17.67;;;7.30;;
16813;SDS011;8524;57.650;11.926;2022-10-23T05:48:07;18.03;;;8.53;;
16813;SDS011;8524;57.650;11.926;2022-10-23T05:50:35;14.77;;;7.57;;
16813;SDS011;8524;57.650;11.926;2022-10-23T05:53:02;10.17;;;5.50;;
16813;SDS011;8524;57.650;11.926;2022-10-23T05:55:29;14.90;;;7.03;;
16813;SDS011;8524;57.650;11.926;2022-10-23T05:57:56;13.50;;;6.20;;
16813;SDS011;8524;57.650;11.926;2022-10-23T06:00:23;10.67;;;6.03;;
16813;SDS011;8524;57.650;11.926;2022-10-23T06:02:50;14.47;;;5.97;;
16813;SDS011;8524;57.650;11.926;2022-10-23T06:05:18;14.10;;;6.13;;
16813;SDS011;8524;57.650;11.926;2022-10-23T06:07:45;11.53;;;6.43;;
16813;SDS011;8524;57.650;11.926;2022-10-23T06:10:13;11.07;;;5.50;;
16813;SDS011;8524;57.650;11.926;2022-10-23T06:12:39;14.57;;;6.57;;
16813;SDS011;8524;57.650;11.926;2022-10-23T06:15:07;12.37;;;5.67;;
16813;SDS011;8524;57.650;11.926;2022-10-23T06:17:34;11.43;;;5.53;;
16813;SDS011;8524;57.650;11.926;2022-10-23T06:20:01;10.77;;;5.77;;
16813;SDS011;8524;57.650;11.926;2022-10-23T06:22:30;10.70;;;5.03;;
16813;SDS011;8524;57.650;11.926;2022-10-23T06:24:57;12.67;;;5.53;;
16813;SDS011;8524;57.650;11.926;2022-10-23T06:27:23;14.73;;;6.40;;
16813;SDS011;8524;57.650;11.926;2022-10-23T06:29:50;12.07;;;5.77;;
16813;SDS011;8524;57.650;11.926;2022-10-23T06:32:17;10.20;;;4.80;;
16813;SDS011;8524;57.650;11.926;2022-10-23T06:34:44;10.90;;;5.33;;
16813;SDS011;8524;57.650;11.926;2022-10-23T06:37:11;9.30;;;5.20;;
16813;SDS011;8524;57.650;11.926;2022-10-23T06:39:39;17.70;;;6.60;;
16813;SDS011;8524;57.650;11.926;2022-10-23T06:42:06;11.27;;;5.43;;
16813;SDS011;8524;57.650;11.926;2022-10-23T06:44:33;11.70;;;5.50;;
16813;SDS011;8524;57.650;11.926;2022-10-23T06:47:00;12.37;;;5.70;;
16813;SDS011;8524;57.650;11.926;2022-10-23T06:49:27;15.40;;;5.53;;
16813;SDS011;8524;57.650;11.926;2022-10-23T06:51:54;10.47;;;4.23;;
16813;SDS011;8524;57.650;11.926;2022-10-23T06:54:20;11.47;;;5.50;;
16813;SDS011;8524;57.650;11.926;2022-10-23T06:56:49;18.03;;;6.77;;
16813;SDS011;8524;57.650;11.926;2022-10-23T06:59:16;11.67;;;4.97;;
16813;SDS011;8524;57.650;11.926;2022-10-23T07:01:43;14.53;;;5.57;;
16813;SDS011;8524;57.650;11.926;2022-10-23T07:04:10;11.07;;;5.67;;
16813;SDS011;8524;57.650;11.926;2022-10-23T07:06:38;14.83;;;5.27;;
16813;SDS011;8524;57.650;11.926;2022-10-23T07:09:05;11.63;;;5.23;;
16813;SDS011;8524;57.650;11.926;2022-10-23T07:11:33;13.70;;;5.93;;
16813;SDS011;8524;57.650;11.926;2022-10-23T07:14:01;13.50;;;6.00;;
16813;SDS011;8524;57.650;11.926;2022-10-23T07:16:28;12.80;;;4.60;;
16813;SDS011;8524;57.650;11.926;2022-10-23T07:18:56;8.37;;;4.30;;
16813;SDS011;8524;57.650;11.926;2022-10-23T07:21:25;7.40;;;3.90;;
16813;SDS011;8524;57.650;11.926;2022-10-23T07:23:52;9.83;;;3.97;;
16813;SDS011;8524;57.650;11.926;2022-10-23T07:26:19;9.90;;;4.10;;
16813;SDS011;8524;57.650;11.926;2022-10-23T07:28:47;10.00;;;4.20;;
16813;SDS011;8524;57.650;11.926;2022-10-23T07:31:16;10.67;;;4.20;;
16813;SDS011;8524;57.650;11.926;2022-10-23T07:33:43;7.80;;;4.77;;
16813;SDS011;8524;57.650;11.926;2022-10-23T07:36:10;10.37;;;4.73;;
16813;SDS011;8524;57.650;11.926;2022-10-23T07:38:37;9.87;;;4.73;;
16813;SDS011;8524;57.650;11.926;2022-10-23T07:41:04;8.60;;;4.00;;
16813;SDS011;8524;57.650;11.926;2022-10-23T07:43:32;12.53;;;4.90;;
16813;SDS011;8524;57.650;11.926;2022-10-23T07:45:59;8.67;;;4.53;;
16813;SDS011;8524;57.650;11.926;2022-10-23T07:48:28;10.73;;;4.80;;
16813;SDS011;8524;57.650;11.926;2022-10-23T07:50:56;13.70;;;4.33;;
16813;SDS011;8524;57.650;11.926;2022-10-23T07:53:24;7.50;;;4.20;;
16813;SDS011;8524;57.650;11.926;2022-10-23T07:55:52;6.47;;;4.20;;
16813;SDS011;8524;57.650;11.926;2022-10-23T07:58:19;8.37;;;4.10;;
16813;SDS011;8524;57.650;11.926;2022-10-23T08:00:47;9.90;;;5.33;;
16813;SDS011;8524;57.650;11.926;2022-10-23T08:03:18;7.83;;;3.90;;
16813;SDS011;8524;57.650;11.926;2022-10-23T08:05:46;7.60;;;4.03;;
16813;SDS011;8524;57.650;11.926;2022-10-23T08:08:13;10.17;;;4.63;;
16813;SDS011;8524;57.650;11.926;2022-10-23T08:10:40;8.87;;;4.57;;
16813;SDS011;8524;57.650;11.926;2022-10-23T08:13:08;13.40;;;5.07;;
16813;SDS011;8524;57.650;11.926;2022-10-23T08:15:37;11.43;;;5.30;;
16813;SDS011;8524;57.650;11.926;2022-10-23T08:18:05;9.40;;;4.33;;
16813;SDS011;8524;57.650;11.926;2022-10-23T08:20:36;13.67;;;5.10;;
16813;SDS011;8524;57.650;11.926;2022-10-23T08:23:05;10.73;;;4.90;;
16813;SDS011;8524;57.650;11.926;2022-10-23T08:25:33;11.13;;;4.80;;
16813;SDS011;8524;57.650;11.926;2022-10-23T08:28:00;12.33;;;5.30;;
16813;SDS011;8524;57.650;11.926;2022-10-23T08:30:27;9.73;;;4.67;;
16813;SDS011;8524;57.650;11.926;2022-10-23T08:32:54;7.73;;;4.30;;
16813;SDS011;8524;57.650;11.926;2022-10-23T08:35:21;8.83;;;4.20;;
16813;SDS011;8524;57.650;11.926;2022-10-23T08:37:48;8.67;;;4.37;;
16813;SDS011;8524;57.650;11.926;2022-10-23T08:40:17;12.50;;;5.00;;
16813;SDS011;8524;57.650;11.926;2022-10-23T08:42:50;12.80;;;5.50;;
16813;SDS011;8524;57.650;11.926;2022-10-23T08:45:27;11.87;;;5.30;;
16813;SDS011;8524;57.650;11.926;2022-10-23T08:47:58;12.43;;;4.93;;
16813;SDS011;8524;57.650;11.926;2022-10-23T08:50:33;13.63;;;5.77;;
16813;SDS011;8524;57.650;11.926;2022-10-23T08:53:08;13.87;;;6.13;;
16813;SDS011;8524;57.650;11.926;2022-10-23T08:55:42;11.03;;;5.10;;
16813;SDS011;8524;57.650;11.926;2022-10-23T08:58:14;11.27;;;4.80;;
16813;SDS011;8524;57.650;11.926;2022-10-23T09:00:46;8.97;;;5.07;;
16813;SDS011;8524;57.650;11.926;2022-10-23T09:03:14;11.27;;;4.97;;
16813;SDS011;8524;57.650;11.926;2022-10-23T09:05:48;10.97;;;4.47;;
16813;SDS011;8524;57.650;11.926;2022-10-23T09:08:28;9.83;;;4.43;;
16813;SDS011;8524;57.650;11.926;2022-10-23T09:11:07;12.10;;;4.83;;
16813;SDS011;8524;57.650;11.926;2022-10-23T09:13:39;11.23;;;4.57;;
16813;SDS011;8524;57.650;11.926;2022-10-23T09:16:34;12.93;;;4.70;;
16813;SDS011;8524;57.650;11.926;2022-10-23T09:19:14;11.77;;;4.87;;
16813;SDS011;8524;57.650;11.926;2022-10-23T09:21:43;16.63;;;5.47;;
16813;SDS011;8524;57.650;11.926;2022-10-23T09:24:14;15.50;;;4.60;;
16813;SDS011;8524;57.650;11.926;2022-10-23T09:26:44;10.40;;;4.30;;
16813;SDS011;8524;57.650;11.926;2022-10-23T09:29:16;9.90;;;4.37;;
16813;SDS011;8524;57.650;11.926;2022-10-23T09:31:48;11.83;;;4.63;;
16813;SDS011;8524;57.650;11.926;2022-10-23T09:34:17;12.27;;;5.17;;
16813;SDS011;8524;57.650;11.926;2022-10-23T09:36:48;11.37;;;4.43;;
16813;SDS011;8524;57.650;11.926;2022-10-23T09:39:24;12.90;;;5.27;;
16813;SDS011;8524;57.650;11.926;2022-10-23T09:41:54;12.37;;;5.27;;
16813;SDS011;8524;57.650;11.926;2022-10-23T09:44:22;14.23;;;5.70;;
16813;SDS011;8524;57.650;11.926;2022-10-23T09:46:51;13.97;;;5.80;;
16813;SDS011;8524;57.650;11.926;2022-10-23T09:49:20;15.13;;;5.33;;
16813;SDS011;8524;57.650;11.926;2022-10-23T09:51:53;10.03;;;5.37;;
16813;SDS011;8524;57.650;11.926;2022-10-23T09:54:28;17.73;;;6.23;;
16813;SDS011;8524;57.650;11.926;2022-10-23T09:57:01;16.33;;;6.80;;
16813;SDS011;8524;57.650;11.926;2022-10-23T09:59:31;16.73;;;5.57;;
16813;SDS011;8524;57.650;11.926;2022-10-23T10:02:00;16.40;;;6.37;;
16813;SDS011;8524;57.650;11.926;2022-10-23T10:04:36;16.10;;;5.80;;
16813;SDS011;8524;57.650;11.926;2022-10-23T10:07:05;13.67;;;5.57;;
16813;SDS011;8524;57.650;11.926;2022-10-23T10:09:44;20.33;;;7.07;;
16813;SDS011;8524;57.650;11.926;2022-10-23T10:12:20;13.93;;;5.70;;
16813;SDS011;8524;57.650;11.926;2022-10-23T10:15:03;15.23;;;5.60;;
16813;SDS011;8524;57.650;11.926;2022-10-23T10:17:38;13.73;;;5.70;;
16813;SDS011;8524;57.650;11.926;2022-10-23T10:20:14;16.63;;;6.37;;
16813;SDS011;8524;57.650;11.926;2022-10-23T10:22:55;17.03;;;7.10;;
16813;SDS011;8524;57.650;11.926;2022-10-23T10:25:26;15.37;;;6.50;;
16813;SDS011;8524;57.650;11.926;2022-10-23T10:28:04;15.97;;;6.50;;
16813;SDS011;8524;57.650;11.926;2022-10-23T10:30:46;18.00;;;7.20;;
16813;SDS011;8524;57.650;11.926;2022-10-23T10:33:21;13.77;;;6.13;;
16813;SDS011;8524;57.650;11.926;2022-10-23T10:35:55;17.53;;;7.53;;
16813;SDS011;8524;57.650;11.926;2022-10-23T10:38:34;17.80;;;7.50;;
16813;SDS011;8524;57.650;11.926;2022-10-23T10:41:14;12.97;;;5.73;;
16813;SDS011;8524;57.650;11.926;2022-10-23T10:44:02;18.90;;;7.47;;
16813;SDS011;8524;57.650;11.926;2022-10-23T10:46:51;13.83;;;7.20;;
16813;SDS011;8524;57.650;11.926;2022-10-23T10:49:25;14.93;;;7.90;;
16813;SDS011;8524;57.650;11.926;2022-10-23T10:51:58;20.23;;;8.30;;
16813;SDS011;8524;57.650;11.926;2022-10-23T10:54:41;17.13;;;7.47;;
16813;SDS011;8524;57.650;11.926;2022-10-23T10:57:18;15.20;;;6.57;;
16813;SDS011;8524;57.650;11.926;2022-10-23T10:59:53;13.23;;;6.93;;
16813;SDS011;8524;57.650;11.926;2022-10-23T11:02:25;16.20;;;7.60;;
16813;SDS011;8524;57.650;11.926;2022-10-23T11:04:56;17.33;;;7.00;;
16813;SDS011;8524;57.650;11.926;2022-10-23T11:07:32;17.83;;;8.03;;
16813;SDS011;8524;57.650;11.926;2022-10-23T11:10:03;22.07;;;8.63;;
16813;SDS011;8524;57.650;11.926;2022-10-23T11:12:39;14.07;;;7.53;;
16813;SDS011;8524;57.650;11.926;2022-10-23T11:15:12;20.73;;;9.13;;
16813;SDS011;8524;57.650;11.926;2022-10-23T11:17:42;15.73;;;7.33;;
16813;SDS011;8524;57.650;11.926;2022-10-23T11:20:15;14.27;;;8.10;;
16813;SDS011;8524;57.650;11.926;2022-10-23T11:22:54;19.00;;;8.10;;
16813;SDS011;8524;57.650;11.926;2022-10-23T11:25:32;16.67;;;7.70;;
16813;SDS011;8524;57.650;11.926;2022-10-23T11:28:17;14.87;;;7.70;;
16813;SDS011;8524;57.650;11.926;2022-10-23T11:31:04;13.87;;;7.57;;
16813;SDS011;8524;57.650;11.926;2022-10-23T11:33:56;15.80;;;9.03;;
16813;SDS011;8524;57.650;11.926;2022-10-23T11:36:41;13.97;;;7.57;;
16813;SDS011;8524;57.650;11.926;2022-10-23T11:39:16;19.37;;;8.73;;
16813;SDS011;8524;57.650;11.926;2022-10-23T11:41:50;17.47;;;8.63;;
16813;SDS011;8524;57.650;11.926;2022-10-23T11:44:24;19.07;;;8.30;;
16813;SDS011;8524;57.650;11.926;2022-10-23T11:47:02;20.83;;;7.87;;
16813;SDS011;8524;57.650;11.926;2022-10-23T11:49:30;15.87;;;8.43;;
16813;SDS011;8524;57.650;11.926;2022-10-23T11:51:58;15.43;;;7.63;;
16813;SDS011;8524;57.650;11.926;2022-10-23T11:54:26;17.40;;;8.33;;
16813;SDS011;8524;57.650;11.926;2022-10-23T11:56:55;13.57;;;7.17;;
16813;SDS011;8524;57.650;11.926;2022-10-23T11:59:38;13.60;;;7.27;;
16813;SDS011;8524;57.650;11.926;2022-10-23T12:02:21;14.70;;;7.60;;
16813;SDS011;8524;57.650;11.926;2022-10-23T12:04:56;13.27;;;7.03;;
16813;SDS011;8524;57.650;11.926;2022-10-23T12:07:27;14.67;;;6.63;;
16813;SDS011;8524;57.650;11.926;2022-10-23T12:09:56;14.17;;;8.47;;
16813;SDS011;8524;57.650;11.926;2022-10-23T12:12:28;15.53;;;8.13;;
16813;SDS011;8524;57.650;11.926;2022-10-23T12:15:08;15.33;;;7.13;;
16813;SDS011;8524;57.650;11.926;2022-10-23T12:17:47;11.70;;;6.87;;
16813;SDS011;8524;57.650;11.926;2022-10-23T12:20:25;14.07;;;7.00;;
16813;SDS011;8524;57.650;11.926;2022-10-23T12:23:02;13.33;;;6.83;;
16813;SDS011;8524;57.650;11.926;2022-10-23T12:25:42;13.43;;;8.37;;
16813;SDS011;8524;57.650;11.926;2022-10-23T12:28:22;14.03;;;6.90;;
16813;SDS011;8524;57.650;11.926;2022-10-23T12:30:58;14.70;;;7.13;;
16813;SDS011;8524;57.650;11.926;2022-10-23T12:33:36;19.73;;;8.10;;
16813;SDS011;8524;57.650;11.926;2022-10-23T12:36:16;13.90;;;7.20;;
16813;SDS011;8524;57.650;11.926;2022-10-23T12:38:51;14.70;;;6.80;;
16813;SDS011;8524;57.650;11.926;2022-10-23T12:41:21;16.43;;;7.80;;
16813;SDS011;8524;57.650;11.926;2022-10-23T12:43:50;17.80;;;8.33;;
16813;SDS011;8524;57.650;11.926;2022-10-23T12:46:30;15.93;;;7.83;;
16813;SDS011;8524;57.650;11.926;2022-10-23T12:49:01;15.30;;;6.90;;
16813;SDS011;8524;57.650;11.926;2022-10-23T12:51:30;16.67;;;7.50;;
16813;SDS011;8524;57.650;11.926;2022-10-23T12:53:58;14.00;;;6.70;;
16813;SDS011;8524;57.650;11.926;2022-10-23T12:56:25;16.37;;;6.40;;
16813;SDS011;8524;57.650;11.926;2022-10-23T12:58:58;19.67;;;7.47;;
16813;SDS011;8524;57.650;11.926;2022-10-23T13:01:27;13.17;;;6.37;;
16813;SDS011;8524;57.650;11.926;2022-10-23T13:03:56;14.70;;;6.60;;
16813;SDS011;8524;57.650;11.926;2022-10-23T13:06:28;14.63;;;6.53;;
16813;SDS011;8524;57.650;11.926;2022-10-23T13:08:56;11.40;;;6.30;;
16813;SDS011;8524;57.650;11.926;2022-10-23T13:11:24;12.13;;;6.33;;
16813;SDS011;8524;57.650;11.926;2022-10-23T13:13:51;18.20;;;7.17;;
16813;SDS011;8524;57.650;11.926;2022-10-23T13:16:19;18.80;;;7.27;;
16813;SDS011;8524;57.650;11.926;2022-10-23T13:18:47;17.43;;;8.20;;
16813;SDS011;8524;57.650;11.926;2022-10-23T13:21:16;18.40;;;7.30;;
16813;SDS011;8524;57.650;11.926;2022-10-23T13:23:46;15.57;;;6.10;;
16813;SDS011;8524;57.650;11.926;2022-10-23T13:26:23;12.80;;;5.87;;
16813;SDS011;8524;57.650;11.926;2022-10-23T13:28:53;15.80;;;5.47;;
16813;SDS011;8524;57.650;11.926;2022-10-23T13:31:28;12.90;;;5.23;;
16813;SDS011;8524;57.650;11.926;2022-10-23T13:34:03;14.17;;;6.17;;
16813;SDS011;8524;57.650;11.926;2022-10-23T13:36:47;13.13;;;5.87;;
16813;SDS011;8524;57.650;11.926;2022-10-23T13:39:21;14.90;;;5.83;;
16813;SDS011;8524;57.650;11.926;2022-10-23T13:41:49;14.40;;;5.47;;
16813;SDS011;8524;57.650;11.926;2022-10-23T13:44:18;11.63;;;5.70;;
16813;SDS011;8524;57.650;11.926;2022-10-23T13:46:46;14.77;;;5.53;;
16813;SDS011;8524;57.650;11.926;2022-10-23T13:49:13;16.17;;;6.30;;
16813;SDS011;8524;57.650;11.926;2022-10-23T13:51:41;17.87;;;6.07;;
16813;SDS011;8524;57.650;11.926;2022-10-23T13:54:12;14.40;;;5.87;;
16813;SDS011;8524;57.650;11.926;2022-10-23T13:56:42;16.17;;;6.00;;
16813;SDS011;8524;57.650;11.926;2022-10-23T13:59:09;13.60;;;6.30;;
16813;SDS011;8524;57.650;11.926;2022-10-23T14:01:36;14.50;;;5.70;;
16813;SDS011;8524;57.650;11.926;2022-10-23T14:04:03;13.77;;;5.83;;
16813;SDS011;8524;57.650;11.926;2022-10-23T14:06:31;11.83;;;5.90;;
16813;SDS011;8524;57.650;11.926;2022-10-23T14:09:02;14.57;;;6.10;;
16813;SDS011;8524;57.650;11.926;2022-10-23T14:11:30;18.70;;;6.47;;
16813;SDS011;8524;57.650;11.926;2022-10-23T14:13:58;14.37;;;5.27;;
16813;SDS011;8524;57.650;11.926;2022-10-23T14:16:25;12.97;;;6.20;;
16813;SDS011;8524;57.650;11.926;2022-10-23T14:18:52;16.27;;;6.93;;
16813;SDS011;8524;57.650;11.926;2022-10-23T14:21:20;13.77;;;6.07;;
16813;SDS011;8524;57.650;11.926;2022-10-23T14:23:47;9.70;;;5.10;;
16813;SDS011;8524;57.650;11.926;2022-10-23T14:26:16;12.87;;;5.73;;
16813;SDS011;8524;57.650;11.926;2022-10-23T14:28:44;9.03;;;5.10;;
16813;SDS011;8524;57.650;11.926;2022-10-23T14:31:13;10.87;;;5.77;;
16813;SDS011;8524;57.650;11.926;2022-10-23T14:33:42;12.20;;;5.90;;
16813;SDS011;8524;57.650;11.926;2022-10-23T14:36:10;13.83;;;6.23;;
16813;SDS011;8524;57.650;11.926;2022-10-23T14:38:38;14.13;;;6.77;;
16813;SDS011;8524;57.650;11.926;2022-10-23T14:41:08;10.77;;;5.77;;
16813;SDS011;8524;57.650;11.926;2022-10-23T14:43:36;9.23;;;5.17;;
16813;SDS011;8524;57.650;11.926;2022-10-23T14:46:06;13.40;;;5.47;;
16813;SDS011;8524;57.650;11.926;2022-10-23T14:48:36;11.60;;;5.60;;
16813;SDS011;8524;57.650;11.926;2022-10-23T14:51:03;10.27;;;4.87;;
16813;SDS011;8524;57.650;11.926;2022-10-23T14:53:32;10.37;;;4.77;;
16813;SDS011;8524;57.650;11.926;2022-10-23T14:55:59;8.80;;;4.67;;
16813;SDS011;8524;57.650;11.926;2022-10-23T14:58:28;12.17;;;5.50;;
16813;SDS011;8524;57.650;11.926;2022-10-23T15:00:58;12.60;;;5.07;;